Terminal Aerodrome Forecast
Issued by NWS

Home | Current Version | Previous Version | Text Only | Print | Product List | Glossary On
Versions: 1 2 3 4 5 6 7 8 9 10 11 12 13 14 15
739
FTUS43 KOAX 271744
TAFSNY
TAF
KSNY 271744Z 2718/2818 07010KT P6SM SCT060
     FM272200 10008KT P6SM VCTS SCT060CB BKN100
     FM280400 12008KT P6SM BKN080=

USA.gov is the U.S. government's official web portal to all federal, state and local government web resources and services.